Time;durP1;ratioP1;P1;durP2;ratioP2;P2;SDS_P1;SDS_P2;PMS_P1;PMS_P2;Temp;Humidity;BMP_temperature;BMP_pressure;BME280_temperature;BME280_humidity;BME280_pressure;Samples;Min_cycle;Max_cycle;Signal;HPM_P1;HPM_P2
2022/12/15 00:40:34;;;;;;;34.35;14.93;;;;;;;-0.81;83.12;98855.03;4942018;28;20065;-82
2022/12/15 00:43:01;;;;;;;32.20;15.07;;;;;;;-0.81;83.24;98855.03;4957169;28;20046;-82
2022/12/15 00:46:53;;;;;;;32.33;15.23;;;;;;;-0.84;83.09;98865.63;4972248;28;20108;-82
2022/12/15 00:48:14;;;;;;;33.25;15.23;;;;;;;-0.80;83.36;98861.91;4960297;28;20051;-82
2022/12/15 00:50:52;;;;;;;31.80;14.30;;;;;;;-0.80;83.21;98854.09;4951456;28;20054;-82
2022/12/15 01:21:00;;;;;;;33.25;15.25;;;;;;;-0.93;81.52;98911.28;4954714;28;20051;-81
2022/12/15 01:23:27;;;;;;;32.33;16.08;;;;;;;-0.92;81.37;98912.13;4959780;28;20049;-82
2022/12/15 01:25:55;;;;;;;34.60;16.10;;;;;;;-0.90;81.61;98908.50;4937906;28;20609;-82
2022/12/15 01:28:22;;;;;;;35.60;16.08;;;;;;;-0.87;81.56;98917.91;4966556;28;20470;-81
2022/12/15 01:30:49;;;;;;;38.58;17.15;;;;;;;-0.84;81.47;98922.09;4953871;28;20054;-82
2022/12/15 01:33:16;;;;;;;37.90;17.38;;;;;;;-0.85;81.47;98933.47;4987959;28;20573;-82
2022/12/15 01:35:43;;;;;;;36.10;16.30;;;;;;;-0.87;81.39;98928.34;4960142;28;20053;-82
2022/12/15 01:38:10;;;;;;;32.05;15.57;;;;;;;-0.89;81.25;98924.97;4954541;28;20115;-82
2022/12/15 01:40:45;;;;;;;32.35;14.68;;;;;;;-0.90;81.13;98925.91;4958265;28;20057;-82
2022/12/15 01:43:21;;;;;;;29.33;16.35;;;;;;;-0.92;80.56;98925.16;4978094;28;20049;-82
2022/12/15 01:46:08;;;;;;;34.95;15.57;;;;;;;-0.92;80.71;98919.94;4983984;28;20058;-83
2022/12/15 01:48:40;;;;;;;30.17;15.55;;;;;;;-0.87;81.14;98917.91;4963785;28;20050;-82
2022/12/15 01:51:34;;;;;;;34.05;14.40;;;;;;;-0.94;80.62;98927.00;4970930;28;20385;-82
2022/12/15 01:54:10;;;;;;;35.33;16.48;;;;;;;-0.90;80.91;98924.13;4935783;28;20038;-82
2022/12/15 01:56:42;;;;;;;30.77;15.40;;;;;;;-0.93;81.60;98926.91;4982744;28;20054;-82
2022/12/15 01:59:13;;;;;;;34.42;14.70;;;;;;;-0.93;82.29;98926.91;4911188;28;20070;-82
2022/12/15 02:01:40;;;;;;;34.83;15.57;;;;;;;-0.91;81.69;98925.06;4893682;28;20058;-82
2022/12/15 02:04:09;;;;;;;34.25;15.75;;;;;;;-0.90;81.26;98928.50;4935055;28;20528;-82
2022/12/15 02:06:35;;;;;;;33.88;15.13;;;;;;;-0.89;80.88;98931.03;4928484;28;20545;-82
2022/12/15 02:09:02;;;;;;;35.63;16.33;;;;;;;-0.88;82.03;98918.84;4937157;28;20051;-83
2022/12/15 02:11:41;;;;;;;32.70;16.02;;;;;;;-0.91;81.53;98929.44;4925094;28;20542;-82
2022/12/15 02:14:09;;;;;;;36.45;16.35;;;;;;;-0.90;81.45;98934.56;4892872;28;20085;-82
2022/12/15 02:16:45;;;;;;;34.33;15.77;;;;;;;-0.91;80.79;98939.88;4935567;28;20498;-82
2022/12/15 02:19:43;;;;;;;31.77;15.93;;;;;;;-0.93;81.25;98946.94;4959100;28;20534;-82
2022/12/15 02:22:33;;;;;;;40.30;17.02;;;;;;;-0.95;81.71;98939.19;4890002;28;20047;-82
2022/12/15 02:25:27;;;;;;;33.58;15.50;;;;;;;-0.99;81.30;98931.63;4897664;28;20863;-83
2022/12/15 02:28:05;;;;;;;38.13;16.35;;;;;;;-0.96;81.04;98934.91;4908469;28;20145;-83
2022/12/15 02:33:57;;;;;;;35.03;15.50;;;;;;;-0.94;80.86;98935.66;4951847;28;20038;-83
2022/12/15 02:36:32;;;;;;;38.60;17.23;;;;;;;-0.96;80.45;98929.69;4930363;28;20038;-82
2022/12/15 02:38:58;;;;;;;33.65;16.13;;;;;;;-0.95;81.23;98928.75;5015038;28;20116;-83
2022/12/15 02:41:38;;;;;;;33.85;15.88;;;;;;;-0.98;80.92;98917.69;4956696;28;20054;-85
2022/12/15 02:44:08;;;;;;;32.80;16.00;;;;;;;-0.98;80.43;98928.09;4961323;28;20058;-82
2022/12/15 02:46:46;;;;;;;40.70;16.77;;;;;;;-1.05;80.40;98931.97;4926091;28;20136;-82
2022/12/15 02:49:25;;;;;;;38.17;15.88;;;;;;;-1.06;80.15;98936.34;4952158;28;20042;-82
2022/12/15 02:52:16;;;;;;;36.20;16.00;;;;;;;-1.06;80.09;98938.94;4950621;28;20130;-82
2022/12/15 02:55:14;;;;;;;35.17;15.98;;;;;;;-1.04;80.32;98946.66;4934327;28;20192;-82
2022/12/15 02:58:08;;;;;;;34.63;16.02;;;;;;;-1.04;80.04;98951.88;4897329;28;20258;-82
2022/12/15 03:00:43;;;;;;;35.30;15.80;;;;;;;-1.03;80.51;98951.81;4958115;28;20645;-83
2022/12/15 03:03:10;;;;;;;32.92;15.43;;;;;;;-0.99;80.44;98962.88;4924018;28;20441;-82
2022/12/15 03:05:37;;;;;;;35.47;16.40;;;;;;;-0.95;80.39;98965.25;4962320;28;20046;-82
2022/12/15 03:08:03;;;;;;;33.22;16.75;;;;;;;-0.97;81.04;98972.31;4956656;28;20057;-83
2022/12/15 03:10:30;;;;;;;33.92;16.13;;;;;;;-0.97;80.99;98974.06;4935286;28;20548;-83
2022/12/15 03:12:57;;;;;;;31.70;15.60;;;;;;;-0.99;81.22;98975.91;4940196;28;20132;-82
2022/12/15 03:15:24;;;;;;;35.30;15.80;;;;;;;-0.99;82.06;98968.97;4947469;28;20096;-82
2022/12/15 03:17:57;;;;;;;36.53;16.55;;;;;;;-1.02;82.57;98973.47;4970043;28;20054;-83
2022/12/15 03:20:23;;;;;;;36.90;15.55;;;;;;;-1.01;82.31;98975.19;4987121;28;20070;-82
2022/12/15 03:22:50;;;;;;;34.38;16.25;;;;;;;-1.01;82.02;98963.00;4971098;28;20057;-85
2022/12/15 03:25:17;;;;;;;36.20;16.40;;;;;;;-1.02;81.84;98969.09;4970356;28;20050;-82
2022/12/15 03:27:45;;;;;;;36.75;17.10;;;;;;;-0.98;81.23;98973.25;4986789;28;20096;-82
2022/12/15 03:30:12;;;;;;;33.50;14.85;;;;;;;-1.00;80.42;98966.44;4963926;28;20053;-82
2022/12/15 03:32:39;;;;;;;36.53;17.17;;;;;;;-1.01;80.43;98965.59;4974488;28;20053;-82
2022/12/15 03:35:06;;;;;;;36.65;17.13;;;;;;;-1.01;80.29;98973.41;4986155;28;20070;-82
2022/12/15 03:37:33;;;;;;;33.55;16.05;;;;;;;-1.00;80.30;98971.66;4963217;28;20053;-82
2022/12/15 03:39:59;;;;;;;36.33;17.35;;;;;;;-1.02;80.12;98968.28;5004970;28;20042;-82
2022/12/15 03:45:11;;;;;;;37.15;16.45;;;;;;;-1.03;79.87;98983.06;4967302;28;20406;-82
2022/12/15 03:47:41;;;;;;;35.72;16.90;;;;;;;-1.05;79.80;98978.88;4960100;28;20213;-82
2022/12/15 03:50:08;;;;;;;37.17;16.73;;;;;;;-1.01;79.86;98981.22;4964948;28;20050;-83
2022/12/15 03:52:35;;;;;;;38.22;16.95;;;;;;;-1.02;80.24;98983.91;4992455;28;20064;-82
2022/12/15 03:55:03;;;;;;;38.58;16.52;;;;;;;-1.06;80.02;98985.03;4973493;28;20516;-82
2022/12/15 03:57:30;;;;;;;31.50;15.60;;;;;;;-1.03;80.29;98990.06;4956169;28;20475;-82
2022/12/15 03:59:56;;;;;;;32.38;15.48;;;;;;;-1.03;79.92;98993.50;4951842;28;20105;-82
2022/12/15 04:02:23;;;;;;;37.38;16.20;;;;;;;-1.00;80.02;98997.69;4951227;28;20054;-82
2022/12/15 04:04:50;;;;;;;34.38;15.48;;;;;;;-1.03;80.66;99000.47;4960991;28;20097;-82
2022/12/15 04:07:17;;;;;;;37.92;15.35;;;;;;;-1.05;79.86;98991.91;4955344;28;20409;-82
2022/12/15 04:09:43;;;;;;;35.38;16.45;;;;;;;-1.02;79.67;98996.94;4976512;28;20118;-82
2022/12/15 04:12:10;;;;;;;38.17;15.73;;;;;;;-1.01;79.78;99004.69;4968049;28;20070;-82
2022/12/15 04:14:41;;;;;;;42.53;17.92;;;;;;;-1.07;78.73;99002.38;4967658;28;20077;-85
2022/12/15 04:17:09;;;;;;;35.78;16.60;;;;;;;-1.05;79.10;99012.75;4972968;28;20382;-83
2022/12/15 04:22:22;;;;;;;34.85;15.45;;;;;;;-1.03;79.00;99010.91;4976081;28;20039;-82
2022/12/15 05:33:58;;;;;;;40.05;17.77;;;;;;;-1.17;79.03;99043.75;5009298;28;20466;-85
2022/12/15 05:36:30;;;;;;;33.58;15.07;;;;;;;-1.17;79.14;99042.88;4986311;28;20576;-84
2022/12/15 05:38:57;;;;;;;39.50;16.58;;;;;;;-1.14;79.17;99032.31;4929631;28;20050;-84
2022/12/15 05:41:24;;;;;;;36.55;16.05;;;;;;;-1.13;79.10;99034.81;4950697;28;20123;-84
2022/12/15 05:43:51;;;;;;;40.67;16.88;;;;;;;-1.18;78.57;99044.66;4970693;28;20425;-84
2022/12/15 05:46:18;;;;;;;39.05;17.27;;;;;;;-1.16;78.51;99047.19;4990557;28;20050;-84
2022/12/15 05:48:45;;;;;;;40.10;17.20;;;;;;;-1.23;78.01;99053.63;4969217;28;20050;-84
2022/12/15 05:51:12;;;;;;;41.67;17.98;;;;;;;-1.28;78.30;99066.91;4971196;28;20739;-85
2022/12/15 05:53:40;;;;;;;38.05;16.33;;;;;;;-1.23;78.64;99075.31;4982060;28;20050;-84
2022/12/15 05:56:12;;;;;;;38.80;17.05;;;;;;;-1.22;78.39;99064.00;4962909;28;20042;-84
2022/12/15 05:58:40;;;;;;;44.50;17.80;;;;;;;-1.25;78.73;99063.28;4955779;28;20061;-84
2022/12/15 06:01:16;;;;;;;35.45;16.45;;;;;;;-1.23;78.36;99057.09;4948858;28;20278;-86
2022/12/15 06:03:43;;;;;;;41.47;17.25;;;;;;;-1.19;78.56;99047.34;4931064;28;20038;-84
2022/12/15 06:06:11;;;;;;;38.40;16.27;;;;;;;-1.22;78.84;99043.16;4968186;28;20471;-84
2022/12/15 06:08:40;;;;;;;42.22;17.70;;;;;;;-1.23;79.32;99045.81;4956761;28;20058;-84
2022/12/15 06:11:09;;;;;;;43.53;19.33;;;;;;;-1.23;78.98;99053.63;4946351;28;20046;-84
2022/12/15 06:13:36;;;;;;;38.53;17.25;;;;;;;-1.23;78.79;99051.88;4983618;28;20046;-84
2022/12/15 06:16:11;;;;;;;43.13;17.88;;;;;;;-1.24;79.26;99063.22;4970811;28;20085;-84
2022/12/15 06:18:40;;;;;;;41.50;18.33;;;;;;;-1.21;79.37;99057.84;4984144;28;20050;-84
2022/12/15 06:21:11;;;;;;;38.85;16.60;;;;;;;-1.21;78.71;99059.63;4967086;28;20057;-85
2022/12/15 06:23:37;;;;;;;44.10;18.95;;;;;;;-1.16;79.39;99076.69;4960228;28;20050;-85
2022/12/15 06:26:13;;;;;;;37.15;16.90;;;;;;;-1.25;79.94;99076.31;4970082;28;20038;-85
2022/12/15 06:28:40;;;;;;;38.30;16.25;;;;;;;-1.21;79.19;99091.72;4963984;28;20502;-84
2022/12/15 06:31:08;;;;;;;40.08;17.50;;;;;;;-1.22;79.25;99100.47;4930949;28;20270;-84
2022/12/15 06:33:36;;;;;;;40.67;17.50;;;;;;;-1.21;79.05;99098.69;4959198;28;20050;-85
2022/12/15 06:36:04;;;;;;;40.55;17.42;;;;;;;-1.23;79.08;99103.13;4964821;28;20058;-93
2022/12/15 06:38:31;;;;;;;41.17;17.77;;;;;;;-1.27;78.71;99089.44;4958277;28;20070;-93
2022/12/15 06:40:59;;;;;;;44.55;18.42;;;;;;;-1.27;78.61;99094.66;4953663;28;20141;-92
2022/12/15 06:43:27;;;;;;;38.35;16.85;;;;;;;-1.26;78.90;99096.31;4950690;28;20068;-93
2022/12/15 06:45:55;;;;;;;40.08;16.23;;;;;;;-1.25;78.73;99092.78;4957821;28;20082;-93
2022/12/15 06:48:22;;;;;;;40.55;18.35;;;;;;;-1.22;78.79;99086.56;4955592;28;20467;-92
2022/12/15 06:50:50;;;;;;;38.38;17.45;;;;;;;-1.23;78.58;99083.13;4951311;28;20130;-93
2022/12/15 06:53:18;;;;;;;34.65;16.38;;;;;;;-1.24;78.49;99073.66;4953772;28;20096;-92
2022/12/15 06:55:45;;;;;;;42.65;17.13;;;;;;;-1.25;78.59;99074.53;4955482;28;20062;-93
2022/12/15 06:58:12;;;;;;;36.45;17.90;;;;;;;-1.25;78.50;99077.16;4972303;28;20498;-92
2022/12/15 07:00:42;;;;;;;40.95;18.17;;;;;;;-1.23;78.36;99079.69;4956339;28;20037;-91
2022/12/15 07:03:14;;;;;;;41.67;19.17;;;;;;;-1.35;78.47;99075.94;4951702;28;20050;-92
2022/12/15 07:05:42;;;;;;;44.30;17.67;;;;;;;-1.28;78.34;99074.72;4975959;28;20101;-92
2022/12/15 07:08:14;;;;;;;40.17;18.35;;;;;;;-1.33;78.62;99089.72;4973278;28;20053;-93
2022/12/15 07:10:42;;;;;;;37.47;17.33;;;;;;;-1.29;78.63;99090.44;4958750;28;20045;-93
2022/12/15 07:13:11;;;;;;;43.35;19.40;;;;;;;-1.34;78.79;99090.66;4994432;28;20387;-93
2022/12/15 07:15:38;;;;;;;44.45;19.85;;;;;;;-1.37;78.83;99107.28;4972567;28;20549;-93
2022/12/15 07:18:09;;;;;;;39.10;19.27;;;;;;;-1.34;78.87;99112.34;4960885;28;20444;-92
2022/12/15 07:20:35;;;;;;;41.50;18.65;;;;;;;-1.33;79.03;99114.00;4969122;28;20059;-92
2022/12/15 07:23:06;;;;;;;41.13;17.77;;;;;;;-1.28;79.18;99121.59;4954296;28;20100;-93
2022/12/15 07:25:35;;;;;;;43.78;18.48;;;;;;;-1.26;78.73;99124.97;4975298;28;20093;-92
2022/12/15 07:28:02;;;;;;;41.65;18.13;;;;;;;-1.28;78.63;99119.00;4973906;28;20054;-93
2022/12/15 07:30:29;;;;;;;38.95;18.67;;;;;;;-1.28;78.69;99121.59;4977918;28;20672;-92
2022/12/15 07:33:04;;;;;;;41.88;18.77;;;;;;;-1.26;78.48;99116.31;4935747;28;20108;-93
2022/12/15 07:35:31;;;;;;;46.15;18.48;;;;;;;-1.26;78.68;99118.94;4979724;28;20539;-92
2022/12/15 07:37:59;;;;;;;38.78;17.42;;;;;;;-1.27;78.41;99109.41;4976804;28;20042;-92
2022/12/15 07:40:25;;;;;;;43.47;19.67;;;;;;;-1.23;78.61;99114.38;4952429;28;20046;-92
2022/12/15 07:42:52;;;;;;;36.95;18.15;;;;;;;-1.26;78.18;99127.56;4950561;28;20055;-92
2022/12/15 07:45:19;;;;;;;44.75;19.80;;;;;;;-1.29;78.19;99129.50;4972972;28;20125;-91
2022/12/15 07:47:49;;;;;;;39.30;18.83;;;;;;;-1.35;78.11;99135.84;4975377;28;20054;-92
2022/12/15 07:50:17;;;;;;;41.92;18.85;;;;;;;-1.27;78.02;99122.44;4958558;28;20107;-92
2022/12/15 07:52:45;;;;;;;42.30;19.45;;;;;;;-1.26;78.05;99122.38;4974157;28;20046;-92
2022/12/15 07:55:11;;;;;;;42.97;18.73;;;;;;;-1.31;78.37;99121.75;4947151;28;20128;-92
2022/12/15 07:57:38;;;;;;;42.45;19.27;;;;;;;-1.34;77.87;99120.16;4941235;28;20050;-92
2022/12/15 08:00:07;;;;;;;46.58;20.33;;;;;;;-1.34;77.97;99116.72;4957192;28;20038;-91
2022/12/15 08:02:39;;;;;;;42.15;20.20;;;;;;;-1.32;78.09;99117.47;4973218;28;20474;-92
2022/12/15 08:05:07;;;;;;;45.20;19.45;;;;;;;-1.33;77.99;99116.63;4957070;28;20054;-92
2022/12/15 08:07:34;;;;;;;47.88;18.83;;;;;;;-1.34;78.06;99114.09;4986846;28;20494;-91
2022/12/15 08:10:00;;;;;;;41.65;18.63;;;;;;;-1.35;77.82;99112.41;4937963;28;20042;-91
2022/12/15 08:12:27;;;;;;;47.25;20.40;;;;;;;-1.41;77.75;99121.38;4941996;28;20446;-92
2022/12/15 08:14:54;;;;;;;43.17;19.30;;;;;;;-1.42;77.47;99130.13;4950370;28;20057;-91
2022/12/15 08:17:21;;;;;;;44.15;19.55;;;;;;;-1.36;77.00;99123.75;4936762;28;20122;-92
2022/12/15 08:19:48;;;;;;;42.08;18.77;;;;;;;-1.35;77.09;99136.72;4957624;28;20054;-93
2022/12/15 08:22:14;;;;;;;42.83;18.23;;;;;;;-1.31;77.18;99135.63;4940082;28;20042;-91
2022/12/15 08:24:41;;;;;;;42.88;18.05;;;;;;;-1.29;77.15;99152.94;4959034;28;20038;-91
2022/12/15 08:27:08;;;;;;;37.72;17.58;;;;;;;-1.41;77.12;99147.41;4958134;28;20043;-91
2022/12/15 08:29:35;;;;;;;42.38;18.00;;;;;;;-1.41;77.16;99159.59;4936299;28;20047;-93
2022/12/15 08:32:18;;;;;;;41.67;18.88;;;;;;;-1.40;77.05;99162.16;4953686;28;20039;-92
2022/12/15 08:34:46;;;;;;;39.97;18.17;;;;;;;-1.36;76.48;99170.63;4956304;28;20097;-92
2022/12/15 08:37:13;;;;;;;42.83;18.15;;;;;;;-1.37;76.73;99181.97;4957737;28;20064;-92
2022/12/15 08:39:40;;;;;;;41.17;17.65;;;;;;;-1.35;77.12;99190.53;4973928;28;20053;-92
2022/12/15 08:42:06;;;;;;;41.50;17.90;;;;;;;-1.37;76.56;99195.00;4969623;28;20042;-92
2022/12/15 08:44:33;;;;;;;41.75;18.02;;;;;;;-1.44;76.07;99198.81;5000902;28;20478;-92
2022/12/15 08:47:00;;;;;;;40.58;18.25;;;;;;;-1.33;76.34;99192.16;4949661;28;20046;-92
2022/12/15 08:49:27;;;;;;;39.38;16.98;;;;;;;-1.61;76.09;99192.66;4986112;28;20050;-91
2022/12/15 08:51:53;;;;;;;43.75;19.20;;;;;;;-1.54;76.23;99203.63;4969275;28;20479;-92
2022/12/15 08:54:20;;;;;;;47.35;21.08;;;;;;;-1.58;76.05;99205.56;4900928;28;1129229;-92
2022/12/15 08:56:47;;;;;;;50.03;22.88;;;;;;;-1.55;76.24;99208.00;4949801;28;20065;-92
2022/12/15 08:59:14;;;;;;;55.38;23.45;;;;;;;-1.47;76.53;99197.22;4973553;28;20066;-92
2022/12/15 09:01:42;;;;;;;49.40;22.50;;;;;;;-1.46;76.44;99180.66;4945785;28;20046;-92
2022/12/15 09:04:09;;;;;;;44.60;20.00;;;;;;;-1.44;75.98;99196.22;4938470;28;20509;-93
2022/12/15 09:06:36;;;;;;;44.03;21.27;;;;;;;-1.43;75.85;99192.69;4957153;28;20043;-92
2022/12/15 09:09:06;;;;;;;42.28;18.92;;;;;;;-1.40;76.13;99193.41;4977778;28;20470;-92
2022/12/15 09:11:33;;;;;;;43.47;18.77;;;;;;;-1.36;75.95;99199.28;4974121;28;20081;-91
2022/12/15 09:14:00;;;;;;;48.83;20.38;;;;;;;-1.32;75.94;99201.66;5004346;28;20430;-91
2022/12/15 09:16:27;;;;;;;44.42;18.55;;;;;;;-1.33;75.16;99197.34;4985393;28;20053;-92
2022/12/15 09:18:56;;;;;;;50.55;20.77;;;;;;;-1.33;75.57;99194.75;4977579;28;20513;-92
2022/12/15 09:21:25;;;;;;;46.65;22.02;;;;;;;-1.34;75.35;99189.63;4954777;28;20049;-91
2022/12/15 09:23:54;;;;;;;48.22;19.40;;;;;;;-1.22;75.55;99203.78;4969101;28;20046;-91
2022/12/15 09:26:22;;;;;;;45.05;18.83;;;;;;;-1.31;74.91;99199.91;4960185;28;20113;-91
2022/12/15 09:28:49;;;;;;;44.08;19.27;;;;;;;-1.27;74.80;99211.00;4972220;28;20503;-91
2022/12/15 09:31:25;;;;;;;44.50;19.45;;;;;;;-1.25;74.73;99198.75;4956056;28;20165;-92
2022/12/15 09:33:52;;;;;;;38.80;17.15;;;;;;;-1.27;75.75;99201.44;4967073;28;20062;-91
2022/12/15 09:36:20;;;;;;;47.55;18.15;;;;;;;-1.17;75.19;99207.88;4940616;28;20069;-92
2022/12/15 09:38:47;;;;;;;45.03;18.90;;;;;;;-1.23;75.39;99209.94;4933239;28;20077;-92
2022/12/15 09:41:13;;;;;;;41.42;17.45;;;;;;;-1.25;75.05;99215.19;4937375;28;20121;-92
2022/12/15 09:43:49;;;;;;;49.20;19.67;;;;;;;-1.17;74.67;99218.28;4987181;28;20114;-91
2022/12/15 09:46:35;;;;;;;38.40;17.50;;;;;;;-1.26;74.40;99208.31;4988767;28;20038;-91
2022/12/15 09:49:19;;;;;;;34.13;15.10;;;;;;;-1.15;74.75;99202.56;4957128;28;20120;-91
2022/12/15 09:51:54;;;;;;;43.58;18.27;;;;;;;-1.25;73.92;99191.75;4953605;28;20092;-91
2022/12/15 09:54:23;;;;;;;41.03;17.40;;;;;;;-1.21;74.90;99190.69;4935476;28;20053;-91
2022/12/15 09:56:54;;;;;;;45.97;18.88;;;;;;;-1.24;73.85;99182.22;4953488;28;20066;-91
2022/12/15 09:59:40;;;;;;;46.55;18.23;;;;;;;-1.24;74.67;99187.41;4930504;28;20050;-91
2022/12/15 10:02:29;;;;;;;45.55;17.80;;;;;;;-1.16;75.06;99188.69;4949703;28;20508;-91
2022/12/15 10:05:08;;;;;;;44.70;18.10;;;;;;;-1.18;74.37;99189.69;4899523;28;20104;-90
2022/12/15 10:07:45;;;;;;;46.15;19.38;;;;;;;-1.11;74.74;99191.06;4950383;28;20466;-91
2022/12/15 10:10:37;;;;;;;45.05;18.60;;;;;;;-1.09;74.73;99194.47;4966854;28;20220;-92
2022/12/15 10:13:10;;;;;;;44.80;18.33;;;;;;;-1.10;74.97;99198.78;4955427;28;20081;-91
2022/12/15 10:15:56;;;;;;;50.00;18.63;;;;;;;-1.06;74.25;99183.88;4971374;28;20086;-91
2022/12/15 10:19:01;;;;;;;44.20;18.95;;;;;;;-1.05;73.98;99167.31;4945573;28;20489;-91
2022/12/15 10:21:30;;;;;;;46.22;18.35;;;;;;;-0.97;74.45;99172.13;4949939;28;20636;-92
2022/12/15 10:24:11;;;;;;;41.60;18.35;;;;;;;-0.92;74.15;99154.47;4963905;28;20054;-91
2022/12/15 10:27:12;;;;;;;45.70;19.75;;;;;;;-0.90;73.71;99160.47;4961295;28;20046;-92
2022/12/15 10:29:43;;;;;;;47.08;17.67;;;;;;;-0.88;73.61;99150.81;4891913;28;20074;-91
2022/12/15 10:32:27;;;;;;;41.67;19.77;;;;;;;-0.85;74.12;99149.78;4943981;28;20442;-92
2022/12/15 10:34:53;;;;;;;45.53;19.10;;;;;;;-0.82;74.23;99147.84;4993599;28;20051;-92
2022/12/15 10:37:20;;;;;;;44.42;18.50;;;;;;;-0.79;74.37;99150.34;4933000;28;20448;-91
2022/12/15 10:39:48;;;;;;;49.83;19.02;;;;;;;-0.78;74.00;99144.19;4951615;28;20038;-90
2022/12/15 10:42:15;;;;;;;48.40;19.48;;;;;;;-0.73;74.36;99136.13;4959015;28;20072;-90
2022/12/15 10:44:45;;;;;;;46.08;19.73;;;;;;;-0.67;74.50;99148.81;4986386;28;20046;-91
2022/12/15 10:47:31;;;;;;;42.70;17.27;;;;;;;-0.64;74.00;99153.03;4951674;28;20137;-91
2022/12/15 10:50:20;;;;;;;42.10;17.52;;;;;;;-0.64;73.47;99143.44;4984807;28;20058;-90
2022/12/15 10:52:50;;;;;;;46.17;18.20;;;;;;;-0.64;73.96;99153.03;4986461;28;20061;-91
2022/12/15 10:55:32;;;;;;;39.03;17.20;;;;;;;-0.62;73.50;99138.97;4932230;28;20494;-92
2022/12/15 10:58:00;;;;;;;48.78;18.27;;;;;;;-0.55;74.16;99142.13;4951147;28;22363;-90
2022/12/15 11:00:32;;;;;;;42.22;17.77;;;;;;;-0.61;73.33;99148.50;5002529;28;20056;-91
2022/12/15 11:02:58;;;;;;;47.83;18.85;;;;;;;-0.67;72.82;99135.78;4984569;28;20101;-91
2022/12/15 11:05:26;;;;;;;48.15;18.85;;;;;;;-0.76;73.00;99131.06;4950506;28;20100;-91
2022/12/15 11:08:13;;;;;;;39.83;17.38;;;;;;;-0.75;73.01;99137.97;4956929;28;20117;-91
2022/12/15 11:13:38;;;;;;;43.15;16.60;;;;;;;-0.69;73.76;99124.59;4933607;28;20073;-91
2022/12/15 11:16:13;;;;;;;42.45;17.23;;;;;;;-0.64;73.12;99124.34;4971180;28;20038;-90
2022/12/15 11:18:49;;;;;;;34.95;15.60;;;;;;;-0.64;72.54;99122.56;4932502;28;22359;-91
2022/12/15 11:21:20;;;;;;;38.22;15.48;;;;;;;-0.69;72.93;99117.63;4947725;28;20051;-91
2022/12/15 11:24:08;;;;;;;41.53;16.45;;;;;;;-0.70;73.10;99117.69;4964783;28;20038;-91
2022/12/15 11:26:47;;;;;;;42.60;17.35;;;;;;;-0.66;73.46;99111.41;4944671;28;20070;-91
2022/12/15 11:29:26;;;;;;;39.00;16.13;;;;;;;-0.65;73.49;99100.03;4970765;28;20047;-91
2022/12/15 11:31:53;;;;;;;41.30;16.63;;;;;;;-0.58;73.70;99093.56;4979205;28;20058;-90
2022/12/15 11:34:35;;;;;;;45.85;18.25;;;;;;;-0.56;73.29;99088.25;4942248;28;20069;-91
2022/12/15 11:37:13;;;;;;;47.60;19.27;;;;;;;-0.58;73.98;99095.34;4918328;28;20046;-92
2022/12/15 11:39:58;;;;;;;44.10;19.10;;;;;;;-0.52;74.27;99088.00;4985482;28;20049;-91
2022/12/15 11:42:49;;;;;;;40.05;18.42;;;;;;;-0.59;73.40;99078.00;4919723;28;20441;-91
2022/12/15 11:45:23;;;;;;;44.80;19.45;;;;;;;-0.64;73.53;99075.63;4937676;28;20109;-91
2022/12/15 11:48:09;;;;;;;43.20;16.08;;;;;;;-0.56;73.33;99072.63;4950806;28;20064;-92
2022/12/15 11:50:41;;;;;;;40.97;16.77;;;;;;;-0.53;73.93;99070.69;4939510;28;20514;-91
2022/12/15 11:53:20;;;;;;;41.95;16.13;;;;;;;-0.58;73.96;99069.28;4951631;28;20050;-91
2022/12/15 11:56:17;;;;;;;49.70;17.88;;;;;;;-0.61;73.64;99064.19;4961511;28;20038;-92
2022/12/15 11:59:01;;;;;;;48.88;17.23;;;;;;;-0.56;73.56;99070.00;4911144;28;20073;-91
2022/12/15 12:01:52;;;;;;;46.97;18.13;;;;;;;-0.53;73.47;99075.91;4982115;28;20049;-92
2022/12/15 12:04:32;;;;;;;35.25;15.65;;;;;;;-0.51;73.86;99078.41;4951938;28;20508;-91
2022/12/15 12:07:10;;;;;;;39.72;15.30;;;;;;;-0.51;73.25;99067.97;4975593;28;20049;-91
2022/12/15 12:09:50;;;;;;;44.00;16.90;;;;;;;-0.45;73.73;99065.88;4985950;28;20062;-91
2022/12/15 12:12:51;;;;;;;43.45;17.67;;;;;;;-0.46;73.64;99060.75;4923984;28;20053;-90
2022/12/15 12:15:26;;;;;;;46.90;17.98;;;;;;;-0.45;73.85;99052.84;4936331;28;20054;-91
2022/12/15 12:18:13;;;;;;;42.40;15.95;;;;;;;-0.51;73.46;99052.34;4971992;28;20045;-90
2022/12/15 12:20:47;;;;;;;42.58;16.60;;;;;;;-0.47;73.35;99036.44;4957366;28;20065;-91
2022/12/15 12:23:30;;;;;;;43.75;18.08;;;;;;;-0.45;73.58;99036.38;4988495;28;20464;-91
2022/12/15 12:26:01;;;;;;;46.60;17.52;;;;;;;-0.44;74.19;99025.81;4958754;28;20054;-91
2022/12/15 12:28:44;;;;;;;42.13;16.50;;;;;;;-0.53;73.50;99026.38;4918869;28;20061;-91
2022/12/15 12:31:40;;;;;;;47.05;16.70;;;;;;;-0.46;73.81;99022.50;4926539;28;20042;-90
2022/12/15 12:34:15;;;;;;;46.50;17.90;;;;;;;-0.49;74.22;99016.59;4953657;28;20591;-91
2022/12/15 12:36:42;;;;;;;48.95;17.67;;;;;;;-0.57;74.12;99013.56;4951605;28;20046;-91
2022/12/15 12:39:20;;;;;;;49.47;18.80;;;;;;;-0.53;74.05;99002.91;4953846;28;20113;-90
2022/12/15 12:41:58;;;;;;;49.03;18.03;;;;;;;-0.49;74.84;99001.78;4967516;28;20053;-91
2022/12/15 12:44:31;;;;;;;46.65;20.23;;;;;;;-0.45;74.59;98999.84;4985675;28;20057;-92
2022/12/15 12:47:10;;;;;;;45.05;17.45;;;;;;;-0.44;74.12;99010.19;4971389;28;20478;-92
2022/12/15 12:49:47;;;;;;;43.80;18.95;;;;;;;-0.46;74.04;99001.63;4986931;28;20045;-91
2022/12/15 12:52:21;;;;;;;43.95;16.63;;;;;;;-0.44;74.35;98994.53;4972307;28;20164;-92
2022/12/15 12:54:58;;;;;;;41.40;17.93;;;;;;;-0.46;74.02;98980.75;4933808;28;20498;-92
2022/12/15 12:57:31;;;;;;;38.30;16.70;;;;;;;-0.44;74.23;99002.34;5003608;28;20470;-92
2022/12/15 13:00:03;;;;;;;41.95;15.68;;;;;;;-0.41;74.20;98987.47;4973476;28;20150;-92
2022/12/15 13:02:30;;;;;;;39.08;16.27;;;;;;;-0.33;74.30;98990.47;4948317;28;20503;-91
2022/12/15 13:04:56;;;;;;;44.17;16.77;;;;;;;-0.38;74.41;98988.16;4992887;28;20048;-91
2022/12/15 13:07:33;;;;;;;45.05;18.17;;;;;;;-0.44;73.81;98972.84;4971756;28;20042;-91
2022/12/15 13:10:03;;;;;;;45.42;16.77;;;;;;;-0.37;74.04;98983.78;4931438;28;20136;-91
2022/12/15 13:12:35;;;;;;;42.22;16.58;;;;;;;-0.35;74.13;98972.31;4989107;28;20054;-91
2022/12/15 13:15:41;;;;;;;48.85;17.40;;;;;;;-0.39;74.28;98959.53;4916769;28;20039;-92
2022/12/15 13:18:17;;;;;;;47.40;17.75;;;;;;;-0.36;74.42;98954.97;4937188;28;20470;-91
2022/12/15 13:20:45;;;;;;;41.58;17.25;;;;;;;-0.33;74.88;98960.03;4985843;28;20565;-92
2022/12/15 13:23:22;;;;;;;46.85;19.35;;;;;;;-0.39;74.61;98967.38;4947963;28;20056;-90
2022/12/15 13:25:52;;;;;;;50.30;18.00;;;;;;;-0.31;74.68;98970.34;4969756;28;20046;-92
2022/12/15 13:28:33;;;;;;;46.28;18.50;;;;;;;-0.34;74.27;98978.38;4987507;28;20050;-91
2022/12/15 13:31:15;;;;;;;53.15;19.77;;;;;;;-0.35;73.83;98972.31;5001721;28;20138;-92
2022/12/15 13:33:48;;;;;;;52.75;19.42;;;;;;;-0.32;74.54;98958.25;4992533;28;20466;-92
2022/12/15 13:36:40;;;;;;;49.20;19.00;;;;;;;-0.38;74.36;98967.28;4994751;28;20046;-90
2022/12/15 13:39:10;;;;;;;51.92;21.83;;;;;;;-0.35;74.52;98959.28;4937484;28;20066;-90
2022/12/15 13:41:47;;;;;;;52.63;21.05;;;;;;;-0.33;74.56;98957.44;4988381;28;20061;-92
2022/12/15 13:44:39;;;;;;;53.13;20.00;;;;;;;-0.33;74.52;98962.66;4942044;28;20052;-93
2022/12/15 13:47:21;;;;;;;54.38;19.88;;;;;;;-0.33;74.27;98970.47;4955971;28;20473;-93
2022/12/15 13:49:57;;;;;;;52.28;20.10;;;;;;;-0.36;74.16;98962.78;4952904;28;20050;-93
2022/12/15 13:52:38;;;;;;;59.88;22.17;;;;;;;-0.42;74.34;98957.09;4980110;28;20108;-93
2022/12/15 13:55:36;;;;;;;62.78;22.67;;;;;;;-0.40;73.84;98969.13;4906942;28;20042;-93
2022/12/15 13:58:14;;;;;;;56.40;21.23;;;;;;;-0.40;73.74;98966.53;4951393;28;20502;-93
2022/12/15 14:01:22;;;;;;;58.67;21.05;;;;;;;-0.46;73.85;98957.28;4938820;28;20450;-92
2022/12/15 14:04:26;;;;;;;55.08;21.27;;;;;;;-0.50;74.00;98949.72;4862340;28;20055;-92
2022/12/15 14:06:59;;;;;;;55.10;20.15;;;;;;;-0.49;74.30;98949.63;4895459;28;20942;-91
2022/12/15 14:09:39;;;;;;;53.78;22.05;;;;;;;-0.57;74.32;98958.81;4960848;28;20671;-92
2022/12/15 14:12:07;;;;;;;54.65;21.38;;;;;;;-0.55;74.20;98957.81;4953587;28;20065;-92